OPS YSSY-NZWN
Flight info
| Callsign | OPS |
|---|---|
| Flight time | N/A |
| Altitude | 45000 |
| Route | CAWLY M636 TANEN |
| Aircraft | C750/M-SBDE3FGHRWXY/S |
Departure
| Time | 2026-04-20 06:19 |
|---|---|
| Airport | Sydney Kingsford Smith International Airport (YSSY) |
Arrival
| Time | N/A |
|---|---|
| Airport | Wellington International Airport (NZWN) |
| Time | Latitude | Longitude | Altitude | Speed | Heading |
|---|---|---|---|---|---|
| 2026-04-20 05:57 | -33.93377 | 151.18933 | 27 ft | 0 kts | 275° |
| 2026-04-20 06:06 | -33.93379 | 151.18927 | 27 ft | 1 kts | 244° |
| 2026-04-20 06:06 | -33.93383 | 151.18927 | 27 ft | 1 kts | 192° |
| 2026-04-20 06:06 | -33.93403 | 151.18923 | 27 ft | 4 kts | 220° |
| 2026-04-20 06:07 | -33.93415 | 151.18883 | 27 ft | 7 kts | 213° |
| 2026-04-20 06:07 | -33.93480 | 151.18858 | 26 ft | 13 kts | 191° |
| 2026-04-20 06:07 | -33.93581 | 151.18832 | 26 ft | 12 kts | 210° |
| 2026-04-20 06:07 | -33.93615 | 151.18726 | 26 ft | 17 kts | 255° |
| 2026-04-20 06:08 | -33.93653 | 151.18567 | 26 ft | 22 kts | 254° |
| 2026-04-20 06:08 | -33.93700 | 151.18364 | 27 ft | 28 kts | 254° |
| 2026-04-20 06:08 | -33.93752 | 151.18151 | 27 ft | 26 kts | 254° |
| 2026-04-20 06:08 | -33.93800 | 151.17940 | 27 ft | 26 kts | 254° |
| 2026-04-20 06:09 | -33.93842 | 151.17786 | 26 ft | 13 kts | 231° |
| 2026-04-20 06:09 | -33.93928 | 151.17787 | 28 ft | 14 kts | 166° |
| 2026-04-20 06:09 | -33.94024 | 151.17815 | 25 ft | 15 kts | 166° |
| 2026-04-20 06:09 | -33.94130 | 151.17838 | 26 ft | 16 kts | 169° |
| 2026-04-20 06:10 | -33.94250 | 151.17869 | 26 ft | 19 kts | 165° |
| 2026-04-20 06:10 | -33.94386 | 151.17908 | 26 ft | 21 kts | 170° |
| 2026-04-20 06:10 | -33.94504 | 151.17881 | 26 ft | 18 kts | 190° |
| 2026-04-20 06:10 | -33.94629 | 151.17910 | 26 ft | 20 kts | 167° |
| 2026-04-20 06:11 | -33.94767 | 151.17945 | 26 ft | 21 kts | 168° |
| 2026-04-20 06:11 | -33.94917 | 151.17983 | 27 ft | 23 kts | 167° |
| 2026-04-20 06:11 | -33.95067 | 151.18026 | 27 ft | 13 kts | 161° |
| 2026-04-20 06:11 | -33.95097 | 151.18119 | 27 ft | 14 kts | 77° |
| 2026-04-20 06:12 | -33.95074 | 151.18248 | 27 ft | 17 kts | 78° |
| 2026-04-20 06:12 | -33.95046 | 151.18402 | 27 ft | 20 kts | 77° |
| 2026-04-20 06:12 | -33.95016 | 151.18568 | 27 ft | 11 kts | 78° |
| 2026-04-20 06:12 | -33.95001 | 151.18650 | 26 ft | 10 kts | 78° |
| 2026-04-20 06:13 | -33.94990 | 151.18714 | 26 ft | 0 kts | 78° |
| 2026-04-20 06:18 | -33.94989 | 151.18717 | 27 ft | 1 kts | 78° |
| 2026-04-20 06:18 | -33.94985 | 151.18744 | 24 ft | 6 kts | 78° |
| 2026-04-20 06:18 | -33.94976 | 151.18816 | 21 ft | 8 kts | 105° |
| 2026-04-20 06:18 | -33.95016 | 151.18843 | 21 ft | 5 kts | 167° |
| 2026-04-20 06:19 | -33.95038 | 151.18849 | 21 ft | 4 kts | 167° |
| 2026-04-20 06:19 | -33.95239 | 151.18901 | 22 ft | 76 kts | 168° |
| 2026-04-20 06:19 | -33.96013 | 151.19102 | 148 ft | 133 kts | 171° |
| 2026-04-20 06:19 | -33.97003 | 151.19350 | 636 ft | 154 kts | 169° |
| 2026-04-20 06:20 | -33.98056 | 151.19643 | 1435 ft | 154 kts | 168° |
| 2026-04-20 06:20 | -33.99071 | 151.20046 | 2235 ft | 158 kts | 152° |
| 2026-04-20 06:20 | -33.99627 | 151.21245 | 2909 ft | 176 kts | 109° |
| 2026-04-20 06:20 | -33.99896 | 151.22702 | 3706 ft | 180 kts | 115° |
| 2026-04-20 06:21 | -34.00476 | 151.24028 | 4543 ft | 179 kts | 128° |
| 2026-04-20 06:21 | -34.01332 | 151.25097 | 5371 ft | 177 kts | 146° |
| 2026-04-20 06:21 | -34.02309 | 151.26012 | 6246 ft | 179 kts | 145° |
| 2026-04-20 06:21 | -34.03283 | 151.26972 | 7092 ft | 182 kts | 145° |
| 2026-04-20 06:22 | -34.04262 | 151.27933 | 7913 ft | 186 kts | 145° |
| 2026-04-20 06:22 | -34.05278 | 151.28927 | 8777 ft | 190 kts | 144° |
| 2026-04-20 06:22 | -34.06309 | 151.29936 | 9680 ft | 190 kts | 145° |
| 2026-04-20 06:22 | -34.07336 | 151.30941 | 10528 ft | 189 kts | 145° |
| 2026-04-20 06:23 | -34.08354 | 151.31939 | 11321 ft | 187 kts | 145° |
| 2026-04-20 06:23 | -34.09363 | 151.32927 | 12108 ft | 186 kts | 145° |
| 2026-04-20 06:23 | -34.10394 | 151.33933 | 12654 ft | 201 kts | 146° |
| 2026-04-20 06:23 | -34.11556 | 151.35064 | 12903 ft | 228 kts | 145° |
| 2026-04-20 06:24 | -34.12858 | 151.36345 | 13142 ft | 255 kts | 144° |
| 2026-04-20 06:24 | -34.14007 | 151.38145 | 13201 ft | 293 kts | 120° |
| 2026-04-20 06:24 | -34.14794 | 151.40515 | 13315 ft | 321 kts | 115° |
| 2026-04-20 06:24 | -34.15608 | 151.43134 | 13399 ft | 345 kts | 115° |
| 2026-04-20 06:25 | -34.16502 | 151.45894 | 13810 ft | 355 kts | 115° |
| 2026-04-20 06:25 | -34.17416 | 151.48666 | 14500 ft | 357 kts | 116° |
| 2026-04-20 06:25 | -34.18333 | 151.51477 | 15066 ft | 361 kts | 115° |
| 2026-04-20 06:25 | -34.19249 | 151.54315 | 15643 ft | 365 kts | 115° |
| 2026-04-20 06:26 | -34.20178 | 151.57181 | 16237 ft | 368 kts | 115° |
| 2026-04-20 06:26 | -34.21119 | 151.60077 | 16837 ft | 372 kts | 115° |
| 2026-04-20 06:26 | -34.22069 | 151.63005 | 17458 ft | 376 kts | 115° |
| 2026-04-20 06:26 | -34.23022 | 151.65956 | 18143 ft | 378 kts | 115° |
| 2026-04-20 06:27 | -34.23986 | 151.68936 | 18760 ft | 382 kts | 115° |
| 2026-04-20 06:27 | -34.24957 | 151.71941 | 19347 ft | 385 kts | 116° |
| 2026-04-20 06:27 | -34.25934 | 151.74972 | 19951 ft | 388 kts | 116° |
| 2026-04-20 06:27 | -34.26919 | 151.78026 | 20580 ft | 391 kts | 116° |
| 2026-04-20 06:28 | -34.27911 | 151.81106 | 21189 ft | 395 kts | 116° |
| 2026-04-20 06:28 | -34.28899 | 151.84179 | 21805 ft | 398 kts | 116° |
| 2026-04-20 06:28 | -34.29909 | 151.87319 | 22402 ft | 402 kts | 116° |
| 2026-04-20 06:28 | -34.30924 | 151.90480 | 22996 ft | 405 kts | 116° |
| 2026-04-20 06:29 | -34.31952 | 151.93686 | 23604 ft | 409 kts | 116° |
| 2026-04-20 06:29 | -34.33125 | 151.96812 | 24087 ft | 407 kts | 123° |
| 2026-04-20 06:29 | -34.34574 | 151.99756 | 24609 ft | 408 kts | 126° |
| 2026-04-20 06:29 | -34.36020 | 152.02725 | 25130 ft | 410 kts | 125° |
| 2026-04-20 06:30 | -34.37458 | 152.05724 | 25634 ft | 412 kts | 126° |
| 2026-04-20 06:30 | -34.38898 | 152.08690 | 26131 ft | 415 kts | 126° |
| 2026-04-20 06:30 | -34.40372 | 152.11701 | 26637 ft | 417 kts | 126° |
| 2026-04-20 06:30 | -34.41847 | 152.14735 | 27140 ft | 419 kts | 126° |
| 2026-04-20 06:31 | -34.43326 | 152.17795 | 27640 ft | 422 kts | 126° |
| 2026-04-20 06:31 | -34.44814 | 152.20871 | 28143 ft | 424 kts | 126° |
| 2026-04-20 06:31 | -34.46313 | 152.23961 | 28648 ft | 427 kts | 126° |
| 2026-04-20 06:31 | -34.47820 | 152.27074 | 29146 ft | 429 kts | 126° |
| 2026-04-20 06:32 | -34.49332 | 152.30206 | 29627 ft | 432 kts | 126° |